sensor_id;sensor_type;location;lat;lon;timestamp;P1;durP1;ratioP1;P2;durP2;ratioP2
44989;SDS011;30723;51.206;3.326;2023-01-30T00:00:56;10.18;;;3.63;;
44989;SDS011;30723;51.206;3.326;2023-01-30T00:03:24;9.95;;;3.30;;
44989;SDS011;30723;51.206;3.326;2023-01-30T00:05:50;12.77;;;3.78;;
44989;SDS011;30723;51.206;3.326;2023-01-30T00:08:17;19.25;;;4.20;;
44989;SDS011;30723;51.206;3.326;2023-01-30T00:10:43;11.20;;;4.75;;
44989;SDS011;30723;51.206;3.326;2023-01-30T00:13:11;14.75;;;4.32;;
44989;SDS011;30723;51.206;3.326;2023-01-30T00:15:38;12.02;;;4.00;;
44989;SDS011;30723;51.206;3.326;2023-01-30T00:18:05;11.50;;;4.20;;
44989;SDS011;30723;51.206;3.326;2023-01-30T00:20:32;17.67;;;4.85;;
44989;SDS011;30723;51.206;3.326;2023-01-30T00:23:00;14.50;;;4.72;;
44989;SDS011;30723;51.206;3.326;2023-01-30T00:25:27;16.15;;;5.28;;
44989;SDS011;30723;51.206;3.326;2023-01-30T00:27:57;16.98;;;5.70;;
44989;SDS011;30723;51.206;3.326;2023-01-30T00:30:25;19.85;;;5.63;;
44989;SDS011;30723;51.206;3.326;2023-01-30T00:32:54;11.25;;;4.20;;
44989;SDS011;30723;51.206;3.326;2023-01-30T00:35:21;9.73;;;4.85;;
44989;SDS011;30723;51.206;3.326;2023-01-30T00:37:53;11.20;;;4.85;;
44989;SDS011;30723;51.206;3.326;2023-01-30T00:40:21;10.32;;;5.38;;
44989;SDS011;30723;51.206;3.326;2023-01-30T00:42:46;11.07;;;5.28;;
44989;SDS011;30723;51.206;3.326;2023-01-30T00:45:32;12.82;;;4.82;;
44989;SDS011;30723;51.206;3.326;2023-01-30T00:48:16;14.75;;;4.70;;
44989;SDS011;30723;51.206;3.326;2023-01-30T00:50:42;13.80;;;4.85;;
44989;SDS011;30723;51.206;3.326;2023-01-30T00:53:09;20.25;;;5.25;;
44989;SDS011;30723;51.206;3.326;2023-01-30T00:55:37;17.05;;;5.68;;
44989;SDS011;30723;51.206;3.326;2023-01-30T00:58:04;13.05;;;4.50;;
44989;SDS011;30723;51.206;3.326;2023-01-30T01:00:31;19.70;;;5.25;;
44989;SDS011;30723;51.206;3.326;2023-01-30T01:02:58;13.18;;;5.15;;
44989;SDS011;30723;51.206;3.326;2023-01-30T01:05:24;21.13;;;5.55;;
44989;SDS011;30723;51.206;3.326;2023-01-30T01:07:51;19.10;;;5.65;;
44989;SDS011;30723;51.206;3.326;2023-01-30T01:10:17;17.77;;;5.95;;
44989;SDS011;30723;51.206;3.326;2023-01-30T01:12:44;20.40;;;6.05;;
44989;SDS011;30723;51.206;3.326;2023-01-30T01:15:11;18.27;;;5.72;;
44989;SDS011;30723;51.206;3.326;2023-01-30T01:17:38;16.63;;;5.70;;
44989;SDS011;30723;51.206;3.326;2023-01-30T01:20:06;12.95;;;5.65;;
44989;SDS011;30723;51.206;3.326;2023-01-30T01:22:35;20.50;;;5.40;;
44989;SDS011;30723;51.206;3.326;2023-01-30T01:25:01;13.45;;;4.80;;
44989;SDS011;30723;51.206;3.326;2023-01-30T01:27:29;16.10;;;5.35;;
44989;SDS011;30723;51.206;3.326;2023-01-30T01:29:55;20.48;;;4.50;;
44989;SDS011;30723;51.206;3.326;2023-01-30T01:32:21;12.68;;;4.70;;
44989;SDS011;30723;51.206;3.326;2023-01-30T01:34:48;16.50;;;5.28;;
44989;SDS011;30723;51.206;3.326;2023-01-30T01:37:15;15.57;;;4.63;;
44989;SDS011;30723;51.206;3.326;2023-01-30T01:39:41;15.00;;;4.68;;
44989;SDS011;30723;51.206;3.326;2023-01-30T01:42:28;16.30;;;5.47;;
44989;SDS011;30723;51.206;3.326;2023-01-30T01:47:56;14.27;;;4.97;;
44989;SDS011;30723;51.206;3.326;2023-01-30T01:51:02;11.18;;;5.20;;
44989;SDS011;30723;51.206;3.326;2023-01-30T01:53:36;16.50;;;5.13;;
44989;SDS011;30723;51.206;3.326;2023-01-30T01:56:09;20.20;;;5.20;;
44989;SDS011;30723;51.206;3.326;2023-01-30T01:58:42;17.02;;;5.53;;
44989;SDS011;30723;51.206;3.326;2023-01-30T02:01:27;15.23;;;4.78;;
44989;SDS011;30723;51.206;3.326;2023-01-30T02:04:14;15.05;;;5.03;;
44989;SDS011;30723;51.206;3.326;2023-01-30T02:07:21;15.30;;;4.65;;
44989;SDS011;30723;51.206;3.326;2023-01-30T02:10:16;13.90;;;5.53;;
44989;SDS011;30723;51.206;3.326;2023-01-30T02:13:04;19.85;;;5.50;;
44989;SDS011;30723;51.206;3.326;2023-01-30T02:15:50;16.95;;;5.05;;
44989;SDS011;30723;51.206;3.326;2023-01-30T02:18:17;15.48;;;5.43;;
44989;SDS011;30723;51.206;3.326;2023-01-30T02:36:10;15.13;;;5.25;;
44989;SDS011;30723;51.206;3.326;2023-01-30T02:39:18;17.48;;;5.35;;
44989;SDS011;30723;51.206;3.326;2023-01-30T02:42:06;13.65;;;5.20;;
44989;SDS011;30723;51.206;3.326;2023-01-30T02:44:51;13.30;;;5.30;;
44989;SDS011;30723;51.206;3.326;2023-01-30T02:47:32;16.92;;;5.70;;
44989;SDS011;30723;51.206;3.326;2023-01-30T02:50:18;15.73;;;5.47;;
44989;SDS011;30723;51.206;3.326;2023-01-30T02:52:49;8.57;;;4.80;;
44989;SDS011;30723;51.206;3.326;2023-01-30T02:55:18;12.48;;;5.10;;
44989;SDS011;30723;51.206;3.326;2023-01-30T02:57:51;18.85;;;5.20;;
44989;SDS011;30723;51.206;3.326;2023-01-30T03:00:18;19.65;;;5.20;;
44989;SDS011;30723;51.206;3.326;2023-01-30T03:05:36;13.30;;;4.93;;
44989;SDS011;30723;51.206;3.326;2023-01-30T03:08:40;11.95;;;4.35;;
44989;SDS011;30723;51.206;3.326;2023-01-30T03:11:49;13.38;;;4.35;;
44989;SDS011;30723;51.206;3.326;2023-01-30T03:17:08;12.32;;;3.75;;
44989;SDS011;30723;51.206;3.326;2023-01-30T03:19:37;14.50;;;3.92;;
44989;SDS011;30723;51.206;3.326;2023-01-30T03:22:03;8.65;;;3.05;;
44989;SDS011;30723;51.206;3.326;2023-01-30T03:24:29;10.82;;;3.63;;
44989;SDS011;30723;51.206;3.326;2023-01-30T03:26:57;10.57;;;2.95;;
44989;SDS011;30723;51.206;3.326;2023-01-30T03:29:37;13.95;;;3.63;;
44989;SDS011;30723;51.206;3.326;2023-01-30T03:32:03;12.75;;;4.05;;
44989;SDS011;30723;51.206;3.326;2023-01-30T03:34:32;17.10;;;4.15;;
44989;SDS011;30723;51.206;3.326;2023-01-30T03:36:58;9.20;;;3.03;;
44989;SDS011;30723;51.206;3.326;2023-01-30T03:39:24;20.17;;;2.90;;
44989;SDS011;30723;51.206;3.326;2023-01-30T03:41:51;13.25;;;3.08;;
44989;SDS011;30723;51.206;3.326;2023-01-30T03:44:19;16.15;;;3.33;;
44989;SDS011;30723;51.206;3.326;2023-01-30T03:46:46;15.45;;;3.30;;
44989;SDS011;30723;51.206;3.326;2023-01-30T03:49:13;11.70;;;3.40;;
44989;SDS011;30723;51.206;3.326;2023-01-30T03:51:40;9.75;;;2.50;;
44989;SDS011;30723;51.206;3.326;2023-01-30T03:54:07;20.40;;;2.97;;
44989;SDS011;30723;51.206;3.326;2023-01-30T03:56:33;7.15;;;2.55;;
44989;SDS011;30723;51.206;3.326;2023-01-30T03:58:59;9.68;;;2.80;;
44989;SDS011;30723;51.206;3.326;2023-01-30T04:01:26;9.20;;;2.92;;
44989;SDS011;30723;51.206;3.326;2023-01-30T04:03:52;9.15;;;2.45;;
44989;SDS011;30723;51.206;3.326;2023-01-30T04:06:19;14.02;;;3.90;;
44989;SDS011;30723;51.206;3.326;2023-01-30T04:08:46;12.85;;;3.83;;
44989;SDS011;30723;51.206;3.326;2023-01-30T04:11:12;15.13;;;3.10;;
44989;SDS011;30723;51.206;3.326;2023-01-30T04:13:38;8.35;;;2.97;;
44989;SDS011;30723;51.206;3.326;2023-01-30T04:18:41;8.30;;;2.75;;
44989;SDS011;30723;51.206;3.326;2023-01-30T04:21:08;12.27;;;2.97;;
44989;SDS011;30723;51.206;3.326;2023-01-30T04:23:35;15.43;;;3.33;;
44989;SDS011;30723;51.206;3.326;2023-01-30T04:26:04;9.88;;;2.70;;
44989;SDS011;30723;51.206;3.326;2023-01-30T04:28:31;11.60;;;3.25;;
44989;SDS011;30723;51.206;3.326;2023-01-30T04:30:57;10.45;;;2.88;;
44989;SDS011;30723;51.206;3.326;2023-01-30T04:33:23;15.48;;;3.30;;
44989;SDS011;30723;51.206;3.326;2023-01-30T04:36:00;11.60;;;2.92;;
44989;SDS011;30723;51.206;3.326;2023-01-30T04:38:36;14.05;;;2.88;;
44989;SDS011;30723;51.206;3.326;2023-01-30T04:41:04;10.73;;;3.28;;
44989;SDS011;30723;51.206;3.326;2023-01-30T04:43:30;11.02;;;3.67;;
44989;SDS011;30723;51.206;3.326;2023-01-30T04:45:57;16.15;;;3.60;;
44989;SDS011;30723;51.206;3.326;2023-01-30T04:48:24;16.35;;;3.08;;
44989;SDS011;30723;51.206;3.326;2023-01-30T04:50:52;15.55;;;3.05;;
44989;SDS011;30723;51.206;3.326;2023-01-30T04:53:21;17.58;;;3.70;;
44989;SDS011;30723;51.206;3.326;2023-01-30T04:55:48;15.38;;;3.15;;
44989;SDS011;30723;51.206;3.326;2023-01-30T04:58:15;14.43;;;4.00;;
44989;SDS011;30723;51.206;3.326;2023-01-30T05:00:43;18.23;;;3.20;;
44989;SDS011;30723;51.206;3.326;2023-01-30T05:03:10;13.05;;;3.70;;
44989;SDS011;30723;51.206;3.326;2023-01-30T05:05:37;11.68;;;3.90;;
44989;SDS011;30723;51.206;3.326;2023-01-30T05:08:02;18.10;;;3.85;;
44989;SDS011;30723;51.206;3.326;2023-01-30T05:10:29;17.08;;;3.83;;
44989;SDS011;30723;51.206;3.326;2023-01-30T05:13:00;12.80;;;3.92;;
44989;SDS011;30723;51.206;3.326;2023-01-30T05:15:30;16.75;;;3.50;;
44989;SDS011;30723;51.206;3.326;2023-01-30T05:17:57;17.23;;;3.85;;
44989;SDS011;30723;51.206;3.326;2023-01-30T05:20:24;18.48;;;3.67;;
44989;SDS011;30723;51.206;3.326;2023-01-30T05:22:51;17.95;;;3.72;;
44989;SDS011;30723;51.206;3.326;2023-01-30T05:25:17;14.38;;;3.53;;
44989;SDS011;30723;51.206;3.326;2023-01-30T05:27:44;19.55;;;4.43;;
44989;SDS011;30723;51.206;3.326;2023-01-30T05:30:10;14.93;;;4.35;;
44989;SDS011;30723;51.206;3.326;2023-01-30T05:32:36;13.70;;;4.03;;
44989;SDS011;30723;51.206;3.326;2023-01-30T05:35:03;11.43;;;3.72;;
44989;SDS011;30723;51.206;3.326;2023-01-30T05:37:30;15.45;;;4.25;;
44989;SDS011;30723;51.206;3.326;2023-01-30T05:39:56;21.17;;;4.43;;
44989;SDS011;30723;51.206;3.326;2023-01-30T05:42:23;17.65;;;4.93;;
44989;SDS011;30723;51.206;3.326;2023-01-30T05:44:49;18.50;;;4.72;;
44989;SDS011;30723;51.206;3.326;2023-01-30T05:47:16;16.55;;;4.93;;
44989;SDS011;30723;51.206;3.326;2023-01-30T05:49:42;25.95;;;5.40;;
44989;SDS011;30723;51.206;3.326;2023-01-30T05:52:09;20.05;;;4.53;;
44989;SDS011;30723;51.206;3.326;2023-01-30T05:54:36;14.90;;;4.68;;
44989;SDS011;30723;51.206;3.326;2023-01-30T05:57:01;18.77;;;4.85;;
44989;SDS011;30723;51.206;3.326;2023-01-30T05:59:28;21.02;;;5.35;;
44989;SDS011;30723;51.206;3.326;2023-01-30T06:01:55;21.58;;;5.95;;
44989;SDS011;30723;51.206;3.326;2023-01-30T06:04:22;26.02;;;5.05;;
44989;SDS011;30723;51.206;3.326;2023-01-30T06:06:49;19.52;;;4.78;;
44989;SDS011;30723;51.206;3.326;2023-01-30T06:09:16;22.70;;;4.05;;
44989;SDS011;30723;51.206;3.326;2023-01-30T06:11:43;20.60;;;4.30;;
44989;SDS011;30723;51.206;3.326;2023-01-30T06:14:10;16.75;;;4.03;;
44989;SDS011;30723;51.206;3.326;2023-01-30T06:16:36;14.98;;;4.50;;
44989;SDS011;30723;51.206;3.326;2023-01-30T06:19:03;18.92;;;3.67;;
44989;SDS011;30723;51.206;3.326;2023-01-30T06:21:30;17.65;;;3.42;;
44989;SDS011;30723;51.206;3.326;2023-01-30T06:23:57;19.70;;;3.95;;
44989;SDS011;30723;51.206;3.326;2023-01-30T06:26:23;17.08;;;3.40;;
44989;SDS011;30723;51.206;3.326;2023-01-30T06:28:50;18.27;;;3.78;;
44989;SDS011;30723;51.206;3.326;2023-01-30T06:31:17;16.73;;;3.95;;
44989;SDS011;30723;51.206;3.326;2023-01-30T06:33:44;18.63;;;3.78;;
44989;SDS011;30723;51.206;3.326;2023-01-30T06:36:11;14.43;;;3.30;;
44989;SDS011;30723;51.206;3.326;2023-01-30T06:38:37;10.90;;;3.40;;
44989;SDS011;30723;51.206;3.326;2023-01-30T06:41:04;15.25;;;3.45;;
44989;SDS011;30723;51.206;3.326;2023-01-30T06:43:31;17.55;;;3.75;;
44989;SDS011;30723;51.206;3.326;2023-01-30T06:45:58;12.85;;;3.33;;
44989;SDS011;30723;51.206;3.326;2023-01-30T06:48:25;15.18;;;2.65;;
44989;SDS011;30723;51.206;3.326;2023-01-30T06:50:51;14.80;;;2.58;;
44989;SDS011;30723;51.206;3.326;2023-01-30T06:53:18;16.98;;;4.20;;
44989;SDS011;30723;51.206;3.326;2023-01-30T06:55:44;14.05;;;3.50;;
44989;SDS011;30723;51.206;3.326;2023-01-30T06:58:12;17.20;;;2.90;;
44989;SDS011;30723;51.206;3.326;2023-01-30T07:00:39;21.67;;;3.85;;
44989;SDS011;30723;51.206;3.326;2023-01-30T07:03:10;19.42;;;3.42;;
44989;SDS011;30723;51.206;3.326;2023-01-30T07:05:40;22.48;;;3.45;;
44989;SDS011;30723;51.206;3.326;2023-01-30T07:08:08;11.23;;;2.72;;
44989;SDS011;30723;51.206;3.326;2023-01-30T07:10:36;18.30;;;4.18;;
44989;SDS011;30723;51.206;3.326;2023-01-30T07:13:03;21.00;;;3.47;;
44989;SDS011;30723;51.206;3.326;2023-01-30T07:15:30;20.45;;;3.88;;
44989;SDS011;30723;51.206;3.326;2023-01-30T07:17:57;15.93;;;3.60;;
44989;SDS011;30723;51.206;3.326;2023-01-30T07:20:25;9.88;;;2.78;;
44989;SDS011;30723;51.206;3.326;2023-01-30T07:22:54;15.70;;;3.03;;
44989;SDS011;30723;51.206;3.326;2023-01-30T07:25:21;19.30;;;2.88;;
44989;SDS011;30723;51.206;3.326;2023-01-30T07:27:52;17.98;;;2.85;;
44989;SDS011;30723;51.206;3.326;2023-01-30T07:30:20;16.17;;;2.78;;
44989;SDS011;30723;51.206;3.326;2023-01-30T07:32:52;15.00;;;3.00;;
44989;SDS011;30723;51.206;3.326;2023-01-30T07:35:36;15.77;;;3.17;;
44989;SDS011;30723;51.206;3.326;2023-01-30T07:38:04;19.33;;;2.50;;
44989;SDS011;30723;51.206;3.326;2023-01-30T07:40:31;14.63;;;2.45;;
44989;SDS011;30723;51.206;3.326;2023-01-30T07:43:01;15.10;;;2.45;;
44989;SDS011;30723;51.206;3.326;2023-01-30T07:45:44;14.45;;;3.25;;
44989;SDS011;30723;51.206;3.326;2023-01-30T07:48:13;22.90;;;3.97;;
44989;SDS011;30723;51.206;3.326;2023-01-30T07:50:41;16.15;;;3.00;;
44989;SDS011;30723;51.206;3.326;2023-01-30T07:53:10;23.38;;;3.33;;
44989;SDS011;30723;51.206;3.326;2023-01-30T07:55:38;28.63;;;3.65;;
44989;SDS011;30723;51.206;3.326;2023-01-30T07:58:06;26.67;;;3.42;;
44989;SDS011;30723;51.206;3.326;2023-01-30T08:00:36;15.63;;;2.35;;
44989;SDS011;30723;51.206;3.326;2023-01-30T08:03:03;24.42;;;3.90;;
44989;SDS011;30723;51.206;3.326;2023-01-30T08:05:29;22.33;;;3.15;;
44989;SDS011;30723;51.206;3.326;2023-01-30T08:07:56;9.35;;;2.65;;
44989;SDS011;30723;51.206;3.326;2023-01-30T08:10:24;16.40;;;2.58;;
44989;SDS011;30723;51.206;3.326;2023-01-30T08:12:51;20.05;;;4.13;;
44989;SDS011;30723;51.206;3.326;2023-01-30T08:15:18;17.23;;;3.15;;
44989;SDS011;30723;51.206;3.326;2023-01-30T08:17:51;23.90;;;4.30;;
44989;SDS011;30723;51.206;3.326;2023-01-30T08:20:21;15.05;;;2.80;;
44989;SDS011;30723;51.206;3.326;2023-01-30T08:22:48;14.55;;;2.72;;
44989;SDS011;30723;51.206;3.326;2023-01-30T08:25:14;12.93;;;2.95;;
44989;SDS011;30723;51.206;3.326;2023-01-30T08:27:41;18.67;;;3.63;;
44989;SDS011;30723;51.206;3.326;2023-01-30T08:30:08;24.60;;;2.80;;
44989;SDS011;30723;51.206;3.326;2023-01-30T08:32:36;24.42;;;3.22;;
44989;SDS011;30723;51.206;3.326;2023-01-30T08:35:02;22.85;;;3.03;;
44989;SDS011;30723;51.206;3.326;2023-01-30T08:37:29;20.55;;;3.17;;
44989;SDS011;30723;51.206;3.326;2023-01-30T08:39:56;18.92;;;3.42;;
44989;SDS011;30723;51.206;3.326;2023-01-30T08:42:23;24.33;;;3.72;;
44989;SDS011;30723;51.206;3.326;2023-01-30T08:44:50;24.13;;;3.35;;
44989;SDS011;30723;51.206;3.326;2023-01-30T08:47:16;22.90;;;4.28;;
44989;SDS011;30723;51.206;3.326;2023-01-30T08:49:42;19.55;;;2.55;;
44989;SDS011;30723;51.206;3.326;2023-01-30T08:52:09;13.23;;;3.35;;
44989;SDS011;30723;51.206;3.326;2023-01-30T08:54:35;21.00;;;3.75;;
44989;SDS011;30723;51.206;3.326;2023-01-30T08:57:01;22.55;;;3.78;;
44989;SDS011;30723;51.206;3.326;2023-01-30T08:59:27;18.45;;;3.20;;
44989;SDS011;30723;51.206;3.326;2023-01-30T09:01:53;20.92;;;3.70;;
44989;SDS011;30723;51.206;3.326;2023-01-30T09:04:19;17.02;;;3.03;;
44989;SDS011;30723;51.206;3.326;2023-01-30T09:06:49;18.00;;;3.78;;
44989;SDS011;30723;51.206;3.326;2023-01-30T09:09:16;17.55;;;3.13;;
44989;SDS011;30723;51.206;3.326;2023-01-30T09:11:43;19.30;;;2.90;;
44989;SDS011;30723;51.206;3.326;2023-01-30T09:14:12;14.65;;;3.15;;
44989;SDS011;30723;51.206;3.326;2023-01-30T09:16:44;19.83;;;3.20;;
44989;SDS011;30723;51.206;3.326;2023-01-30T09:19:12;15.65;;;4.03;;
44989;SDS011;30723;51.206;3.326;2023-01-30T09:21:39;16.90;;;3.28;;
44989;SDS011;30723;51.206;3.326;2023-01-30T09:24:05;20.45;;;3.25;;
44989;SDS011;30723;51.206;3.326;2023-01-30T09:26:31;20.35;;;3.75;;
44989;SDS011;30723;51.206;3.326;2023-01-30T09:28:57;28.88;;;4.40;;
44989;SDS011;30723;51.206;3.326;2023-01-30T09:31:23;21.30;;;3.67;;
44989;SDS011;30723;51.206;3.326;2023-01-30T09:33:50;17.23;;;3.17;;
44989;SDS011;30723;51.206;3.326;2023-01-30T09:36:16;21.38;;;2.83;;
44989;SDS011;30723;51.206;3.326;2023-01-30T09:38:43;19.88;;;2.90;;
44989;SDS011;30723;51.206;3.326;2023-01-30T09:41:17;27.38;;;4.28;;
44989;SDS011;30723;51.206;3.326;2023-01-30T09:49:24;23.50;;;2.72;;
44989;SDS011;30723;51.206;3.326;2023-01-30T09:52:02;16.90;;;3.58;;
44989;SDS011;30723;51.206;3.326;2023-01-30T09:55:15;17.77;;;3.35;;
44989;SDS011;30723;51.206;3.326;2023-01-30T09:57:46;19.65;;;3.28;;
44989;SDS011;30723;51.206;3.326;2023-01-30T10:02:49;20.75;;;3.70;;
44989;SDS011;30723;51.206;3.326;2023-01-30T10:05:16;18.20;;;2.97;;
44989;SDS011;30723;51.206;3.326;2023-01-30T10:08:28;20.95;;;4.10;;
44989;SDS011;30723;51.206;3.326;2023-01-30T10:10:48;20.00;;;2.90;;
44989;SDS011;30723;51.206;3.326;2023-01-30T10:16:15;20.42;;;2.65;;
44989;SDS011;30723;51.206;3.326;2023-01-30T10:27:14;18.35;;;3.20;;
44989;SDS011;30723;51.206;3.326;2023-01-30T10:29:43;21.38;;;3.63;;
44989;SDS011;30723;51.206;3.326;2023-01-30T10:32:25;19.70;;;3.08;;
44989;SDS011;30723;51.206;3.326;2023-01-30T10:35:21;24.40;;;3.55;;
44989;SDS011;30723;51.206;3.326;2023-01-30T10:40:44;24.83;;;3.58;;
44989;SDS011;30723;51.206;3.326;2023-01-30T10:43:33;22.58;;;3.78;;
44989;SDS011;30723;51.206;3.326;2023-01-30T10:48:59;19.27;;;3.33;;
44989;SDS011;30723;51.206;3.326;2023-01-30T11:00:01;14.45;;;2.72;;
44989;SDS011;30723;51.206;3.326;2023-01-30T11:05:49;25.05;;;2.78;;
44989;SDS011;30723;51.206;3.326;2023-01-30T11:08:25;17.70;;;3.33;;
44989;SDS011;30723;51.206;3.326;2023-01-30T11:10:56;16.60;;;3.53;;
44989;SDS011;30723;51.206;3.326;2023-01-30T11:13:23;18.85;;;3.15;;
44989;SDS011;30723;51.206;3.326;2023-01-30T11:16:03;23.23;;;3.22;;
44989;SDS011;30723;51.206;3.326;2023-01-30T11:18:48;17.02;;;3.30;;
44989;SDS011;30723;51.206;3.326;2023-01-30T11:21:20;28.38;;;3.63;;
44989;SDS011;30723;51.206;3.326;2023-01-30T11:23:49;15.18;;;3.40;;
44989;SDS011;30723;51.206;3.326;2023-01-30T11:26:20;18.45;;;3.00;;
44989;SDS011;30723;51.206;3.326;2023-01-30T11:29:13;18.13;;;3.20;;
44989;SDS011;30723;51.206;3.326;2023-01-30T11:31:39;16.63;;;3.35;;
44989;SDS011;30723;51.206;3.326;2023-01-30T11:34:10;20.15;;;2.90;;
44989;SDS011;30723;51.206;3.326;2023-01-30T11:36:40;14.65;;;3.20;;
44989;SDS011;30723;51.206;3.326;2023-01-30T11:41:40;21.27;;;4.65;;
44989;SDS011;30723;51.206;3.326;2023-01-30T11:44:09;22.25;;;3.17;;
44989;SDS011;30723;51.206;3.326;2023-01-30T11:46:37;16.05;;;2.97;;
44989;SDS011;30723;51.206;3.326;2023-01-30T11:49:14;11.77;;;2.95;;
44989;SDS011;30723;51.206;3.326;2023-01-30T11:51:53;19.30;;;3.05;;
44989;SDS011;30723;51.206;3.326;2023-01-30T11:54:21;14.80;;;2.80;;
44989;SDS011;30723;51.206;3.326;2023-01-30T11:56:56;25.25;;;4.63;;
44989;SDS011;30723;51.206;3.326;2023-01-30T11:59:29;21.77;;;3.20;;
44989;SDS011;30723;51.206;3.326;2023-01-30T12:02:12;16.27;;;3.50;;
44989;SDS011;30723;51.206;3.326;2023-01-30T12:04:49;15.20;;;2.45;;
44989;SDS011;30723;51.206;3.326;2023-01-30T12:07:21;17.50;;;2.90;;
44989;SDS011;30723;51.206;3.326;2023-01-30T12:09:52;16.33;;;3.38;;
44989;SDS011;30723;51.206;3.326;2023-01-30T12:12:28;19.52;;;3.53;;
44989;SDS011;30723;51.206;3.326;2023-01-30T12:20:04;23.77;;;3.85;;
44989;SDS011;30723;51.206;3.326;2023-01-30T12:22:44;20.20;;;3.40;;
44989;SDS011;30723;51.206;3.326;2023-01-30T12:25:25;21.67;;;3.65;;
44989;SDS011;30723;51.206;3.326;2023-01-30T12:28:02;14.85;;;3.22;;
44989;SDS011;30723;51.206;3.326;2023-01-30T12:30:55;17.92;;;4.03;;
44989;SDS011;30723;51.206;3.326;2023-01-30T12:33:40;13.25;;;2.90;;
44989;SDS011;30723;51.206;3.326;2023-01-30T12:36:09;18.52;;;3.28;;
44989;SDS011;30723;51.206;3.326;2023-01-30T12:41:38;21.35;;;4.00;;
44989;SDS011;30723;51.206;3.326;2023-01-30T12:44:30;14.77;;;3.63;;
44989;SDS011;30723;51.206;3.326;2023-01-30T13:00:27;16.73;;;3.20;;
44989;SDS011;30723;51.206;3.326;2023-01-30T13:09:18;25.05;;;4.10;;
44989;SDS011;30723;51.206;3.326;2023-01-30T13:12:13;17.38;;;3.45;;
44989;SDS011;30723;51.206;3.326;2023-01-30T13:17:46;23.02;;;3.65;;
44989;SDS011;30723;51.206;3.326;2023-01-30T13:28:24;17.17;;;3.45;;
44989;SDS011;30723;51.206;3.326;2023-01-30T13:31:22;22.45;;;3.40;;
44989;SDS011;30723;51.206;3.326;2023-01-30T13:34:08;20.88;;;3.08;;
44989;SDS011;30723;51.206;3.326;2023-01-30T13:36:44;24.23;;;3.40;;
44989;SDS011;30723;51.206;3.326;2023-01-30T13:41:54;18.00;;;4.15;;
44989;SDS011;30723;51.206;3.326;2023-01-30T13:44:25;18.45;;;3.70;;
44989;SDS011;30723;51.206;3.326;2023-01-30T13:46:55;22.25;;;4.13;;
44989;SDS011;30723;51.206;3.326;2023-01-30T13:49:38;19.52;;;3.63;;
44989;SDS011;30723;51.206;3.326;2023-01-30T13:52:25;23.15;;;3.33;;
44989;SDS011;30723;51.206;3.326;2023-01-30T13:55:14;18.75;;;3.65;;
44989;SDS011;30723;51.206;3.326;2023-01-30T14:01:19;16.15;;;3.55;;
44989;SDS011;30723;51.206;3.326;2023-01-30T14:03:47;19.48;;;4.10;;
44989;SDS011;30723;51.206;3.326;2023-01-30T14:07:17;27.60;;;3.70;;
44989;SDS011;30723;51.206;3.326;2023-01-30T14:20:30;17.67;;;3.20;;
44989;SDS011;30723;51.206;3.326;2023-01-30T14:25:49;22.05;;;4.07;;
44989;SDS011;30723;51.206;3.326;2023-01-30T14:28:46;17.10;;;3.75;;
44989;SDS011;30723;51.206;3.326;2023-01-30T14:34:37;28.00;;;4.60;;
44989;SDS011;30723;51.206;3.326;2023-01-30T14:40:00;28.60;;;3.45;;
44989;SDS011;30723;51.206;3.326;2023-01-30T14:43:15;24.55;;;3.42;;
44989;SDS011;30723;51.206;3.326;2023-01-30T14:45:49;25.02;;;3.85;;
44989;SDS011;30723;51.206;3.326;2023-01-30T14:56:44;23.90;;;3.85;;
44989;SDS011;30723;51.206;3.326;2023-01-30T14:59:52;15.05;;;3.10;;
44989;SDS011;30723;51.206;3.326;2023-01-30T15:02:48;29.27;;;3.92;;
44989;SDS011;30723;51.206;3.326;2023-01-30T15:05:41;27.40;;;4.82;;
44989;SDS011;30723;51.206;3.326;2023-01-30T15:08:18;22.35;;;3.88;;
44989;SDS011;30723;51.206;3.326;2023-01-30T15:10:50;19.73;;;3.97;;
44989;SDS011;30723;51.206;3.326;2023-01-30T15:24:35;22.98;;;4.22;;
44989;SDS011;30723;51.206;3.326;2023-01-30T15:27:11;24.02;;;4.18;;
44989;SDS011;30723;51.206;3.326;2023-01-30T15:32:25;24.33;;;3.55;;
44989;SDS011;30723;51.206;3.326;2023-01-30T15:34:54;16.50;;;3.63;;
44989;SDS011;30723;51.206;3.326;2023-01-30T15:42:43;16.75;;;3.35;;
44989;SDS011;30723;51.206;3.326;2023-01-30T15:45:18;27.08;;;2.97;;
44989;SDS011;30723;51.206;3.326;2023-01-30T15:48:02;26.35;;;4.10;;
44989;SDS011;30723;51.206;3.326;2023-01-30T15:50:51;26.08;;;4.07;;
44989;SDS011;30723;51.206;3.326;2023-01-30T15:53:24;27.48;;;3.90;;
44989;SDS011;30723;51.206;3.326;2023-01-30T15:56:07;34.15;;;7.78;;
44989;SDS011;30723;51.206;3.326;2023-01-30T15:58:41;38.70;;;6.85;;
44989;SDS011;30723;51.206;3.326;2023-01-30T16:01:09;25.52;;;6.28;;
44989;SDS011;30723;51.206;3.326;2023-01-30T16:03:41;29.17;;;6.57;;
44989;SDS011;30723;51.206;3.326;2023-01-30T16:06:19;28.27;;;5.43;;
44989;SDS011;30723;51.206;3.326;2023-01-30T16:09:22;16.80;;;3.58;;
44989;SDS011;30723;51.206;3.326;2023-01-30T16:11:47;24.65;;;5.90;;
44989;SDS011;30723;51.206;3.326;2023-01-30T16:14:17;23.42;;;5.38;;
44989;SDS011;30723;51.206;3.326;2023-01-30T16:19:27;22.35;;;6.00;;
44989;SDS011;30723;51.206;3.326;2023-01-30T16:22:15;28.25;;;5.60;;
44989;SDS011;30723;51.206;3.326;2023-01-30T16:24:58;26.80;;;6.03;;
44989;SDS011;30723;51.206;3.326;2023-01-30T16:27:28;28.92;;;6.13;;
44989;SDS011;30723;51.206;3.326;2023-01-30T16:29:58;37.08;;;6.93;;
44989;SDS011;30723;51.206;3.326;2023-01-30T16:32:29;23.55;;;4.55;;
44989;SDS011;30723;51.206;3.326;2023-01-30T16:37:47;28.85;;;4.38;;
44989;SDS011;30723;51.206;3.326;2023-01-30T16:40:16;23.85;;;4.18;;
44989;SDS011;30723;51.206;3.326;2023-01-30T16:48:47;30.13;;;5.38;;
44989;SDS011;30723;51.206;3.326;2023-01-30T16:51:20;33.58;;;6.55;;
44989;SDS011;30723;51.206;3.326;2023-01-30T16:53:52;25.70;;;5.80;;
44989;SDS011;30723;51.206;3.326;2023-01-30T16:56:25;22.50;;;5.22;;
44989;SDS011;30723;51.206;3.326;2023-01-30T16:58:56;19.98;;;4.20;;
44989;SDS011;30723;51.206;3.326;2023-01-30T17:01:35;20.40;;;5.82;;
44989;SDS011;30723;51.206;3.326;2023-01-30T17:04:05;25.55;;;4.47;;
44989;SDS011;30723;51.206;3.326;2023-01-30T17:06:40;21.42;;;4.57;;
44989;SDS011;30723;51.206;3.326;2023-01-30T17:12:39;26.05;;;4.53;;
44989;SDS011;30723;51.206;3.326;2023-01-30T17:17:36;24.70;;;5.40;;
44989;SDS011;30723;51.206;3.326;2023-01-30T17:20:02;39.75;;;10.52;;
44989;SDS011;30723;51.206;3.326;2023-01-30T17:22:29;30.02;;;6.30;;
44989;SDS011;30723;51.206;3.326;2023-01-30T17:24:58;25.17;;;6.13;;
44989;SDS011;30723;51.206;3.326;2023-01-30T17:27:28;29.05;;;5.70;;
44989;SDS011;30723;51.206;3.326;2023-01-30T17:29:56;39.83;;;5.97;;
44989;SDS011;30723;51.206;3.326;2023-01-30T17:32:22;26.63;;;6.43;;
44989;SDS011;30723;51.206;3.326;2023-01-30T17:34:48;37.47;;;7.75;;
44989;SDS011;30723;51.206;3.326;2023-01-30T17:37:16;28.77;;;6.93;;
44989;SDS011;30723;51.206;3.326;2023-01-30T17:39:45;34.00;;;6.75;;
44989;SDS011;30723;51.206;3.326;2023-01-30T17:42:13;29.83;;;7.97;;
44989;SDS011;30723;51.206;3.326;2023-01-30T17:44:42;25.67;;;8.02;;
44989;SDS011;30723;51.206;3.326;2023-01-30T17:47:09;28.48;;;10.05;;
44989;SDS011;30723;51.206;3.326;2023-01-30T17:49:36;35.33;;;10.18;;
44989;SDS011;30723;51.206;3.326;2023-01-30T17:52:03;32.58;;;8.02;;
44989;SDS011;30723;51.206;3.326;2023-01-30T17:54:29;38.25;;;8.80;;
44989;SDS011;30723;51.206;3.326;2023-01-30T17:56:57;30.80;;;9.70;;
44989;SDS011;30723;51.206;3.326;2023-01-30T17:59:25;34.08;;;9.77;;